Disclaimer

Please do not use the information listed here in-flight or in-navigation, as they are not provided to us by the airports but are provided by volunteers, so they might be outdated.

Search


Regions


Airport information page

Radio informations:
LA ROMANA TWR - 118.6 MHz
LAS AMERICAS APP - 119.3 MHz

Airport informations:
Latitude: 18° 27' 02.56" N
Longitude: 068° 54' 42.60" W
Elevation: 240 feet - 73 meters
Operating hours: N/A
Operating agency: Civil government, landing fees and diplomatic clearance may be required
Timezone: UTC-4
Fuel: Jet A1, without icing nhibitor.

Runway information:
11/29 - 9676 x 148 feet< - >2949 x 45 meters

Recent METARs:
MDLR 131400Z 08011KT 9999 FEW016CB BKN018 27/25 Q1017 CB/E DISP TEMPO 7000 SH
MDLR 131400Z 08011KT 9999 FEW016CB BKN018 27/25 Q1017 CB/E DISP TEMPO 7000 SH
MDLR 131500Z 08013KT 8000 VCSH FEW018CB SCT018 30/26 Q1016 CB/NE/NW

Airport on the map: